Time;durP1;ratioP1;P1;durP2;ratioP2;P2;SDS_P1;SDS_P2;PMS_P1;PMS_P2;Temp;Humidity;BMP_temperature;BMP_pressure;BME280_temperature;BME280_humidity;BME280_pressure;Samples;Min_cycle;Max_cycle;Signal;HPM_P1;HPM_P2
2022/04/01 00:01:01;;;;;;;1.75;0.40;;;;;;;4.55;72.16;100887.06;7387976;19;20334;-64
2022/04/01 00:03:28;;;;;;;2.42;0.40;;;;;;;4.53;71.96;100875.91;7386233;19;20516;-64
2022/04/01 00:05:55;;;;;;;2.15;0.40;;;;;;;4.48;72.00;100901.47;7388024;19;20022;-64
2022/04/01 00:08:22;;;;;;;1.77;0.28;;;;;;;4.47;72.90;100890.22;7384627;19;20042;-64
2022/04/01 00:10:50;;;;;;;3.20;0.50;;;;;;;4.46;72.80;100888.56;7387177;19;20007;-64
2022/04/01 00:13:16;;;;;;;0.30;0.15;;;;;;;4.48;72.99;100889.28;7384542;19;20464;-63
2022/04/01 00:15:43;;;;;;;3.25;0.57;;;;;;;4.51;72.72;100890.84;7383880;19;20017;-64
2022/04/01 00:18:11;;;;;;;2.60;0.45;;;;;;;4.50;72.41;100890.00;7386394;19;20011;-64
2022/04/01 00:20:38;;;;;;;1.15;0.30;;;;;;;4.50;72.41;100895.22;7387670;19;20018;-65
2022/04/01 00:23:05;;;;;;;2.10;0.25;;;;;;;4.48;72.64;100896.25;7383862;19;20529;-64
2022/04/01 00:25:32;;;;;;;1.02;0.20;;;;;;;4.48;73.04;100902.28;7384245;19;20014;-65
2022/04/01 00:27:59;;;;;;;3.47;0.30;;;;;;;4.46;73.27;100898.16;7383843;19;20002;-63
2022/04/01 00:30:26;;;;;;;1.98;0.60;;;;;;;4.44;73.11;100893.06;7388826;19;20439;-66
2022/04/01 00:32:53;;;;;;;0.90;0.20;;;;;;;4.47;73.41;100898.03;7390492;19;20479;-64
2022/04/01 00:35:20;;;;;;;4.20;0.30;;;;;;;4.44;73.33;100893.06;7384480;19;20086;-63
2022/04/01 00:37:47;;;;;;;2.03;0.20;;;;;;;4.42;73.54;100899.34;7387879;19;20604;-64
2022/04/01 00:40:14;;;;;;;2.30;0.20;;;;;;;4.42;73.72;100905.34;7385080;19;20026;-64
2022/04/01 00:42:41;;;;;;;2.13;0.47;;;;;;;4.43;73.66;100893.16;7388292;19;20486;-64
2022/04/01 00:45:10;;;;;;;2.85;0.38;;;;;;;4.41;73.68;100897.66;7382936;19;20013;-65
2022/04/01 00:47:38;;;;;;;5.35;1.92;;;;;;;4.39;73.68;100891.72;7383194;19;20122;-65
2022/04/01 00:50:06;;;;;;;3.65;0.32;;;;;;;4.41;73.67;100903.72;7383300;19;20491;-64
2022/04/01 00:52:34;;;;;;;4.32;0.30;;;;;;;4.34;73.79;100892.06;7384851;19;20090;-64
2022/04/01 00:55:01;;;;;;;1.95;0.20;;;;;;;4.28;74.14;100902.91;7383267;19;20034;-64
2022/04/01 00:57:30;;;;;;;0.80;0.22;;;;;;;4.34;74.30;100892.06;7384852;19;20345;-64
2022/04/01 00:59:56;;;;;;;1.95;0.30;;;;;;;4.36;74.06;100899.78;7382762;19;20105;-64
2022/04/01 01:02:25;;;;;;;3.88;0.40;;;;;;;4.40;73.84;100890.78;7383066;19;20018;-65
2022/04/01 01:04:52;;;;;;;0.68;0.20;;;;;;;4.39;73.41;100889.13;7386305;19;20011;-64
2022/04/01 01:07:19;;;;;;;1.17;0.30;;;;;;;4.37;73.98;100878.00;7382124;19;20106;-65
2022/04/01 01:09:49;;;;;;;1.55;0.10;;;;;;;4.41;73.73;100887.25;7384507;19;20014;-64
2022/04/01 01:12:16;;;;;;;0.93;0.20;;;;;;;4.41;74.43;100880.25;7385990;19;20014;-63
2022/04/01 01:14:44;;;;;;;3.63;0.38;;;;;;;4.42;74.20;100879.28;7384648;19;20505;-63
2022/04/01 01:17:14;;;;;;;1.67;0.20;;;;;;;4.44;74.32;100871.38;7384327;19;20011;-64
2022/04/01 01:19:45;;;;;;;2.05;0.30;;;;;;;4.46;74.40;100859.91;7384321;19;20015;-63
2022/04/01 01:22:13;;;;;;;0.75;0.28;;;;;;;4.43;74.26;100867.09;7385797;19;20330;-64
2022/04/01 01:24:41;;;;;;;3.03;0.40;;;;;;;4.41;75.09;100862.03;7387350;19;20011;-64
2022/04/01 01:27:10;;;;;;;2.75;0.38;;;;;;;4.41;75.24;100876.81;7382823;19;20472;-65
2022/04/01 01:29:39;;;;;;;2.83;0.40;;;;;;;4.38;74.89;100862.25;7388176;19;20487;-64
2022/04/01 01:32:09;;;;;;;0.85;0.40;;;;;;;4.38;75.07;100864.00;7384633;19;20084;-64
2022/04/01 01:34:39;;;;;;;2.22;0.40;;;;;;;4.32;74.89;100858.31;7379907;19;20435;-64
2022/04/01 01:37:07;;;;;;;4.00;0.50;;;;;;;4.32;75.24;100868.72;7385130;19;20022;-65
2022/04/01 01:39:34;;;;;;;2.13;0.47;;;;;;;4.28;74.98;100856.88;7383486;19;20020;-64
2022/04/01 01:42:01;;;;;;;5.18;0.98;;;;;;;4.22;75.06;100857.31;7386452;19;20078;-65
2022/04/01 01:44:29;;;;;;;3.03;0.70;;;;;;;4.20;75.10;100848.81;7384042;19;20019;-65
2022/04/01 01:46:57;;;;;;;3.70;0.60;;;;;;;4.22;74.83;100848.66;7384751;19;20513;-65
2022/04/01 01:49:23;;;;;;;2.45;0.60;;;;;;;4.15;75.29;100840.50;7383437;19;20010;-66
2022/04/01 01:54:45;;;;;;;0.90;0.50;;;;;;;4.18;75.30;100836.81;7383535;19;20006;-65
2022/04/01 01:57:24;;;;;;;1.60;0.50;;;;;;;4.19;75.16;100835.88;7384453;19;20026;-65
2022/04/01 01:59:52;;;;;;;4.05;0.70;;;;;;;4.16;75.15;100851.75;7383649;19;20014;-65
2022/04/01 02:02:20;;;;;;;5.05;0.60;;;;;;;4.16;75.16;100831.75;7384164;19;20011;-65
2022/04/01 02:04:47;;;;;;;3.95;0.65;;;;;;;4.21;75.28;100841.81;7385476;19;20006;-65
2022/04/01 02:07:14;;;;;;;1.70;0.75;;;;;;;4.22;75.18;100841.69;7382525;19;20007;-65
2022/04/01 02:09:43;;;;;;;1.58;0.40;;;;;;;4.22;75.50;100846.06;7381212;19;20015;-68
2022/04/01 02:12:10;;;;;;;3.47;0.50;;;;;;;4.20;75.52;100840.16;7383445;19;20095;-65
2022/04/01 02:14:37;;;;;;;3.33;0.80;;;;;;;4.24;75.61;100842.44;7384313;19;20322;-63
2022/04/01 02:17:04;;;;;;;4.93;0.73;;;;;;;4.20;75.36;100853.19;7382652;19;20018;-64
2022/04/01 02:19:31;;;;;;;2.78;0.57;;;;;;;4.20;75.87;100863.59;7385471;19;20019;-65
2022/04/01 02:21:59;;;;;;;2.85;0.60;;;;;;;4.11;75.72;100840.84;7380609;19;20029;-65
2022/04/01 02:24:26;;;;;;;3.40;1.65;;;;;;;4.14;76.28;100851.84;7384421;19;20013;-65
2022/04/01 02:26:53;;;;;;;5.75;0.70;;;;;;;4.09;76.25;100859.16;7382669;19;20073;-64
2022/04/01 02:29:23;;;;;;;2.55;0.60;;;;;;;4.09;76.54;100853.13;7380909;19;20010;-66
2022/04/01 02:31:51;;;;;;;2.75;0.50;;;;;;;4.11;76.27;100848.66;7380631;19;20014;-64
2022/04/01 02:34:19;;;;;;;4.30;0.55;;;;;;;4.08;76.17;100854.06;7383513;19;20502;-64
2022/04/01 02:36:46;;;;;;;1.15;0.43;;;;;;;4.09;76.23;100853.13;7384521;19;20021;-65
2022/04/01 02:39:13;;;;;;;2.13;0.40;;;;;;;4.11;76.05;100848.66;7380213;19;20011;-64
2022/04/01 02:41:40;;;;;;;2.58;0.50;;;;;;;4.11;75.63;100849.47;7383807;19;20015;-64
2022/04/01 02:44:08;;;;;;;1.25;0.55;;;;;;;4.10;75.77;100860.81;7383188;19;20033;-64
2022/04/01 02:46:37;;;;;;;1.88;0.43;;;;;;;4.08;75.63;100851.44;7386197;19;20027;-64
2022/04/01 02:49:06;;;;;;;0.80;0.40;;;;;;;4.07;75.94;100849.78;7387021;19;20333;-64
2022/04/01 02:51:39;;;;;;;1.33;0.28;;;;;;;4.07;76.13;100855.00;7393329;19;20336;-64
2022/04/01 02:54:07;;;;;;;0.73;0.20;;;;;;;4.05;75.68;100849.09;7389379;19;20372;-64
2022/04/01 02:56:37;;;;;;;0.43;0.30;;;;;;;4.03;75.93;100854.38;7392239;19;20105;-64
2022/04/01 02:59:07;;;;;;;1.73;0.30;;;;;;;4.03;75.61;100848.34;7388817;19;20549;-64
2022/04/01 03:01:41;;;;;;;3.90;0.30;;;;;;;4.03;75.70;100848.34;7391133;19;20042;-64
2022/04/01 03:04:10;;;;;;;0.68;0.35;;;;;;;4.05;76.08;100856.88;7391265;19;20040;-64
2022/04/01 03:06:43;;;;;;;2.72;0.30;;;;;;;4.06;75.97;100848.97;7391714;19;20135;-64
2022/04/01 03:09:11;;;;;;;1.75;0.40;;;;;;;4.05;75.98;100846.47;7387875;19;20097;-64
2022/04/01 03:11:38;;;;;;;1.95;0.55;;;;;;;4.05;76.18;100859.50;7388776;19;20070;-65
2022/04/01 03:14:07;;;;;;;1.73;0.38;;;;;;;4.02;76.04;100859.69;7393170;19;20148;-64
2022/04/01 03:16:34;;;;;;;2.17;0.38;;;;;;;4.03;76.39;100861.38;7390953;19;20531;-64
2022/04/01 03:19:02;;;;;;;3.10;0.38;;;;;;;4.05;76.16;100857.72;7388865;19;20093;-64
2022/04/01 03:21:29;;;;;;;3.42;0.40;;;;;;;4.03;75.52;100867.41;7390359;19;20316;-64
2022/04/01 03:23:56;;;;;;;0.82;0.30;;;;;;;4.02;75.83;100870.09;7388803;19;20451;-64
2022/04/01 03:26:29;;;;;;;4.40;0.30;;;;;;;4.02;76.25;100867.50;7388281;19;20019;-63
2022/04/01 03:28:56;;;;;;;0.80;0.32;;;;;;;4.05;76.66;100857.72;7388040;19;20038;-64
2022/04/01 03:31:23;;;;;;;1.50;0.40;;;;;;;4.07;76.53;100878.41;7386010;19;20021;-64
2022/04/01 03:33:51;;;;;;;3.28;0.63;;;;;;;4.10;76.51;100880.81;7386947;19;20014;-64
2022/04/01 03:36:21;;;;;;;3.60;0.30;;;;;;;4.09;76.14;100887.78;7388440;19;19999;-64
2022/04/01 03:38:54;;;;;;;2.55;0.50;;;;;;;4.08;76.14;100877.47;7387815;19;20007;-64
2022/04/01 03:41:24;;;;;;;2.00;0.50;;;;;;;4.11;76.24;100879.88;7387038;19;20213;-65
2022/04/01 03:43:54;;;;;;;2.45;0.40;;;;;;;4.08;75.93;100887.91;7387863;19;20476;-63
2022/04/01 03:46:29;;;;;;;3.92;0.50;;;;;;;4.09;76.38;100892.16;7386372;19;20122;-65
2022/04/01 03:49:07;;;;;;;2.45;0.50;;;;;;;4.08;76.35;100878.31;7389051;19;20509;-65
2022/04/01 03:51:38;;;;;;;5.95;1.00;;;;;;;4.06;76.45;100887.19;7389579;19;20010;-64
2022/04/01 03:54:05;;;;;;;1.92;0.50;;;;;;;4.04;76.17;100874.28;7389068;19;20010;-65
2022/04/01 03:56:37;;;;;;;4.28;0.52;;;;;;;4.04;76.00;100883.84;7391037;19;20011;-66
2022/04/01 03:59:06;;;;;;;2.50;0.77;;;;;;;4.01;76.15;100886.69;7385790;19;20417;-66
2022/04/01 04:01:37;;;;;;;2.42;0.60;;;;;;;3.98;76.15;100879.09;7388591;19;20015;-65
2022/04/01 04:04:05;;;;;;;3.33;0.70;;;;;;;3.97;75.76;100875.63;7390741;19;20028;-65
2022/04/01 04:06:34;;;;;;;4.72;0.40;;;;;;;3.96;75.79;100881.81;7388439;19;20025;-64
2022/04/01 04:09:02;;;;;;;2.05;0.55;;;;;;;3.97;75.38;100880.84;7385035;19;20301;-65
2022/04/01 04:11:32;;;;;;;1.75;0.70;;;;;;;3.99;75.40;100886.78;7387810;19;20021;-65
2022/04/01 04:14:01;;;;;;;4.55;0.70;;;;;;;3.99;75.30;100885.94;7386911;19;20015;-64
2022/04/01 04:16:44;;;;;;;3.78;1.30;;;;;;;4.00;75.33;100893.66;7390124;19;20708;-64
2022/04/01 04:19:14;;;;;;;2.38;0.50;;;;;;;3.99;74.73;100898.97;7391203;19;20312;-65
2022/04/01 04:22:22;;;;;;;2.88;0.60;;;;;;;3.98;74.91;100903.34;7389896;19;20082;-65
2022/04/01 04:24:54;;;;;;;1.48;0.60;;;;;;;3.93;74.52;100913.25;7383699;19;20099;-64
2022/04/01 04:27:30;;;;;;;4.90;1.05;;;;;;;3.95;75.21;100903.56;7386284;19;20498;-65
2022/04/01 04:30:06;;;;;;;2.42;0.70;;;;;;;3.94;74.93;100901.06;7384006;19;20026;-64
2022/04/01 04:32:35;;;;;;;2.65;0.65;;;;;;;3.93;74.22;100910.63;7385732;19;20078;-65
2022/04/01 04:35:05;;;;;;;1.55;0.60;;;;;;;3.96;74.46;100912.22;7387267;19;20006;-68
2022/04/01 04:37:35;;;;;;;2.00;0.70;;;;;;;4.00;74.33;100918.84;7386407;19;20017;-65
2022/04/01 04:40:04;;;;;;;3.55;0.70;;;;;;;3.98;74.25;100908.53;7387031;19;20463;-65
2022/04/01 04:42:32;;;;;;;2.53;0.60;;;;;;;4.02;73.83;100919.56;7388751;19;20641;-65
2022/04/01 04:44:59;;;;;;;2.80;0.70;;;;;;;4.01;73.40;100921.34;7389056;19;20019;-66
2022/04/01 04:47:28;;;;;;;2.60;0.52;;;;;;;3.99;73.33;100931.03;7385913;19;20086;-65
2022/04/01 04:49:57;;;;;;;1.48;0.40;;;;;;;4.01;73.42;100941.34;7383433;19;20010;-65
2022/04/01 04:52:32;;;;;;;5.22;0.80;;;;;;;4.01;73.50;100931.78;7386666;19;20015;-65
2022/04/01 04:55:06;;;;;;;2.05;0.68;;;;;;;3.98;73.11;100934.56;7384760;19;20450;-65
2022/04/01 04:57:42;;;;;;;3.38;0.70;;;;;;;3.97;73.39;100922.50;7388441;19;20615;-65
2022/04/01 05:00:10;;;;;;;4.57;0.50;;;;;;;3.96;73.61;100928.66;7382801;19;20010;-64
2022/04/01 05:02:49;;;;;;;3.08;0.57;;;;;;;3.96;73.10;100938.22;7385034;19;20055;-65
2022/04/01 05:05:30;;;;;;;7.32;0.80;;;;;;;3.94;72.96;100934.91;7385621;19;20016;-65
2022/04/01 05:08:25;;;;;;;2.42;0.52;;;;;;;3.92;72.73;100945.41;7384778;19;20360;-64
2022/04/01 05:11:05;;;;;;;1.45;0.43;;;;;;;3.92;73.53;100948.00;7382783;19;20042;-65
2022/04/01 05:13:45;;;;;;;1.25;0.30;;;;;;;3.93;72.77;100961.84;7388265;19;20098;-64
2022/04/01 05:16:53;;;;;;;4.32;0.40;;;;;;;3.96;73.26;100969.47;7387860;19;20524;-65
2022/04/01 05:19:28;;;;;;;2.28;0.50;;;;;;;3.99;73.53;100972.69;7383584;19;20026;-64
2022/04/01 05:22:09;;;;;;;2.65;0.55;;;;;;;4.01;73.20;100985.59;7385931;19;20030;-64
2022/04/01 05:24:40;;;;;;;1.95;0.35;;;;;;;3.98;73.31;100976.22;7384920;19;20006;-65
2022/04/01 05:27:31;;;;;;;1.30;0.40;;;;;;;3.98;73.42;100976.22;7384581;19;20444;-65
2022/04/01 05:30:13;;;;;;;2.25;0.45;;;;;;;3.96;73.42;100988.53;7382858;19;20486;-65
2022/04/01 05:32:52;;;;;;;6.87;0.47;;;;;;;3.90;73.66;100990.72;7382705;19;20162;-64
2022/04/01 05:35:22;;;;;;;2.33;0.40;;;;;;;3.90;73.95;100983.72;7383784;19;20014;-65
2022/04/01 05:38:00;;;;;;;1.00;0.30;;;;;;;3.86;74.12;100995.25;7381109;19;20014;-64
2022/04/01 05:40:28;;;;;;;5.00;0.60;;;;;;;3.84;74.24;100989.34;7380539;19;20017;-65
2022/04/01 05:42:57;;;;;;;5.10;0.40;;;;;;;3.82;74.21;100999.03;7388389;19;20021;-64
2022/04/01 05:45:29;;;;;;;2.63;0.50;;;;;;;3.79;74.55;101007.06;7385678;19;20015;-64
2022/04/01 05:47:57;;;;;;;2.35;0.40;;;;;;;3.82;74.76;101004.22;7384982;19;20031;-64
2022/04/01 05:50:26;;;;;;;2.30;0.40;;;;;;;3.85;74.67;101006.63;7381427;19;20006;-65
2022/04/01 05:52:53;;;;;;;1.90;0.57;;;;;;;3.92;74.97;101000.06;7384834;19;20018;-64
2022/04/01 05:55:23;;;;;;;3.72;0.38;;;;;;;3.93;74.79;101006.09;7387895;19;20081;-64
2022/04/01 05:57:50;;;;;;;2.03;0.38;;;;;;;3.91;74.32;101008.00;7383838;19;20009;-65
2022/04/01 06:00:17;;;;;;;3.50;0.40;;;;;;;3.93;74.75;101014.75;7381920;19;20293;-65
2022/04/01 06:03:14;;;;;;;2.03;0.40;;;;;;;3.96;75.06;101029.31;7381691;19;20015;-64
2022/04/01 06:05:51;;;;;;;0.98;0.40;;;;;;;3.98;75.49;101032.63;7383830;19;20345;-66
2022/04/01 06:08:50;;;;;;;1.10;0.30;;;;;;;3.96;75.03;101027.56;7385428;19;20019;-65
2022/04/01 06:11:33;;;;;;;1.42;0.40;;;;;;;3.98;74.77;101035.25;7386705;19;20519;-65
2022/04/01 06:14:28;;;;;;;1.00;0.30;;;;;;;4.01;74.90;101046.28;7385342;19;20022;-63
2022/04/01 06:17:28;;;;;;;1.10;0.40;;;;;;;4.00;74.62;101039.41;7383415;19;20010;-65
2022/04/01 06:19:57;;;;;;;3.63;0.50;;;;;;;4.01;74.99;101032.44;7379790;19;20385;-65
2022/04/01 06:22:28;;;;;;;4.03;0.40;;;;;;;4.03;74.63;101035.75;7390160;19;20015;-64
2022/04/01 06:25:17;;;;;;;1.65;0.60;;;;;;;4.04;74.67;101051.28;7389697;19;20032;-64
2022/04/01 06:27:45;;;;;;;2.70;0.85;;;;;;;3.99;74.80;101042.94;7391404;19;20479;-64
2022/04/01 06:30:15;;;;;;;2.33;0.65;;;;;;;3.97;74.92;101052.63;7386954;19;20022;-63
2022/04/01 06:33:01;;;;;;;2.47;0.60;;;;;;;3.97;75.17;101054.38;7390555;19;20343;-64
2022/04/01 06:35:35;;;;;;;4.32;0.70;;;;;;;3.97;75.08;101047.41;7391609;19;20028;-64
2022/04/01 06:38:06;;;;;;;1.33;0.40;;;;;;;4.00;75.09;101057.63;7394349;19;20006;-64
2022/04/01 06:40:56;;;;;;;2.03;0.50;;;;;;;4.09;74.60;101062.19;7388209;19;20042;-66
2022/04/01 06:43:24;;;;;;;5.78;0.90;;;;;;;4.14;74.41;101069.69;7389710;19;20365;-65
2022/04/01 06:45:54;;;;;;;1.55;0.40;;;;;;;4.19;74.25;101071.03;7394368;19;20093;-66
2022/04/01 06:48:26;;;;;;;3.80;0.70;;;;;;;4.26;74.21;101067.09;7392848;19;20047;-65
2022/04/01 06:50:54;;;;;;;2.80;0.70;;;;;;;4.37;74.01;101066.31;7390088;19;20022;-65
2022/04/01 06:53:21;;;;;;;5.72;0.65;;;;;;;4.44;73.60;101082.34;7393492;19;20022;-65
2022/04/01 06:55:49;;;;;;;2.92;0.60;;;;;;;4.44;73.25;101080.59;7392771;19;20448;-66
2022/04/01 06:58:18;;;;;;;1.85;0.63;;;;;;;4.45;74.91;101079.66;7391032;19;20734;-66
2022/04/01 07:00:45;;;;;;;2.78;0.52;;;;;;;4.52;75.48;101072.25;7389010;19;20423;-65
2022/04/01 07:03:13;;;;;;;3.60;0.93;;;;;;;4.64;74.46;101085.22;7389631;19;20033;-65
2022/04/01 07:05:40;;;;;;;4.15;0.85;;;;;;;4.66;72.74;101080.75;7392816;19;20035;-65
2022/04/01 07:08:08;;;;;;;4.10;0.60;;;;;;;4.77;72.66;101086.97;7388696;19;20018;-65
2022/04/01 07:10:35;;;;;;;5.03;1.10;;;;;;;4.87;72.24;101103.63;7388199;19;20082;-65
2022/04/01 07:13:02;;;;;;;3.45;0.82;;;;;;;4.87;71.06;101098.41;7392430;19;20476;-65
2022/04/01 07:15:29;;;;;;;1.60;0.50;;;;;;;4.93;71.10;101109.22;7391365;19;20029;-64
2022/04/01 07:17:56;;;;;;;2.65;0.47;;;;;;;5.10;70.31;101094.97;7388510;19;20197;-65
2022/04/01 07:20:23;;;;;;;1.85;0.50;;;;;;;5.26;69.55;101094.69;7392008;19;20007;-64
2022/04/01 07:22:53;;;;;;;2.75;0.70;;;;;;;5.42;69.09;101098.66;7388162;19;20017;-65
2022/04/01 07:25:24;;;;;;;19.88;5.97;;;;;;;5.54;69.70;101108.19;7389130;19;20461;-64
2022/04/01 07:27:53;;;;;;;6.68;1.30;;;;;;;5.65;68.88;101106.56;7387152;19;20015;-64
2022/04/01 07:30:20;;;;;;;4.75;1.42;;;;;;;5.88;68.64;101101.31;7386271;19;20022;-65
2022/04/01 07:32:50;;;;;;;1.35;0.40;;;;;;;5.97;66.18;101110.22;7385899;19;20046;-64
2022/04/01 07:35:17;;;;;;;2.25;0.65;;;;;;;5.87;66.08;101109.25;7387983;19;20015;-66
2022/04/01 07:37:45;;;;;;;3.47;0.50;;;;;;;5.91;66.07;101116.75;7389999;19;20014;-65
2022/04/01 07:40:24;;;;;;;3.95;0.40;;;;;;;5.89;65.69;101121.25;7385784;19;20029;-65
2022/04/01 07:42:53;;;;;;;4.75;0.50;;;;;;;5.83;65.67;101120.88;7390189;19;20015;-65
2022/04/01 07:45:20;;;;;;;4.07;0.50;;;;;;;5.84;65.71;101125.13;7385285;19;20042;-65
2022/04/01 07:47:50;;;;;;;4.78;0.50;;;;;;;5.90;65.97;101122.91;7386427;19;20052;-65
2022/04/01 07:50:18;;;;;;;1.85;0.40;;;;;;;5.92;64.90;101123.63;7386043;19;20232;-65
2022/04/01 07:52:46;;;;;;;3.45;0.40;;;;;;;6.00;64.55;101134.31;7387555;19;20007;-65
2022/04/01 07:55:16;;;;;;;1.38;0.40;;;;;;;5.87;63.76;101124.94;7387537;19;20115;-64
2022/04/01 07:57:45;;;;;;;2.85;0.40;;;;;;;6.10;63.89;101134.47;7385401;19;20014;-64
2022/04/01 08:00:15;;;;;;;4.40;0.43;;;;;;;6.52;62.72;101130.34;7387282;19;20014;-65
2022/04/01 08:02:43;;;;;;;2.33;0.50;;;;;;;6.91;61.18;101131.59;7386407;19;20014;-64
2022/04/01 08:05:10;;;;;;;1.05;0.38;;;;;;;7.73;58.21;101136.19;7384996;19;20015;-64
2022/04/01 08:07:37;;;;;;;3.47;0.68;;;;;;;8.36;55.94;101139.66;7385676;19;20086;-66
2022/04/01 08:10:05;;;;;;;4.03;0.50;;;;;;;8.58;54.35;101157.81;7385294;19;20013;-64
2022/04/01 08:12:40;;;;;;;1.30;0.30;;;;;;;8.81;54.50;101149.75;7389714;19;20015;-65
2022/04/01 08:15:08;;;;;;;2.65;0.38;;;;;;;8.56;53.97;101156.28;7386644;19;20022;-65
2022/04/01 08:17:35;;;;;;;1.95;0.30;;;;;;;8.02;55.04;101156.53;7387256;19;20178;-65
2022/04/01 08:20:03;;;;;;;1.23;0.52;;;;;;;7.64;56.88;101159.69;7390508;19;20019;-65
2022/04/01 08:22:30;;;;;;;4.80;0.52;;;;;;;7.44;57.96;101168.34;7386585;19;20019;-65
2022/04/01 08:24:57;;;;;;;3.58;0.40;;;;;;;7.29;58.23;101163.38;7389346;19;20019;-66
2022/04/01 08:27:24;;;;;;;2.10;0.32;;;;;;;7.17;58.95;101169.59;7387162;19;20094;-64
2022/04/01 08:29:55;;;;;;;3.35;0.70;;;;;;;7.22;59.63;101170.06;7389154;19;20031;-64
2022/04/01 08:32:22;;;;;;;3.17;0.50;;;;;;;7.28;58.87;101166.13;7387783;19;20333;-64
2022/04/01 08:34:49;;;;;;;2.90;0.35;;;;;;;7.32;58.12;101178.84;7387960;19;20013;-64
2022/04/01 08:37:16;;;;;;;2.60;0.55;;;;;;;7.31;58.16;101177.16;7390255;19;20095;-64
2022/04/01 08:39:49;;;;;;;;;;;;;;;7.33;58.41;101184.91;7386161;19;20301;-64
2022/04/01 08:42:16;;;;;;;3.03;0.30;;;;;;;7.26;58.58;101168.84;7388068;19;19918;-64
2022/04/01 08:44:49;;;;;;;4.25;0.30;;;;;;;7.24;58.89;101178.63;7385709;19;20010;-65
2022/04/01 08:47:16;;;;;;;4.03;0.40;;;;;;;7.29;58.63;101166.00;7387164;19;20142;-65
2022/04/01 08:49:46;;;;;;;1.50;0.30;;;;;;;7.35;58.90;101167.31;7384449;19;20030;-65
2022/04/01 08:52:13;;;;;;;1.92;0.50;;;;;;;7.32;57.84;101178.84;7386061;19;20453;-63
2022/04/01 08:54:40;;;;;;;3.42;0.20;;;;;;;7.23;57.81;101179.56;7386956;19;20093;-65
2022/04/01 08:57:08;;;;;;;4.78;1.27;;;;;;;7.04;58.13;101179.38;7387210;19;20638;-64
2022/04/01 08:59:36;;;;;;;1.27;0.25;;;;;;;7.02;58.83;101178.66;7383033;19;20041;-66
2022/04/01 09:02:06;;;;;;;1.42;0.20;;;;;;;7.03;58.10;101213.50;7388541;19;20027;-63
2022/04/01 09:04:33;;;;;;;1.75;0.30;;;;;;;6.99;58.23;101199.84;7386047;19;20082;-64
2022/04/01 09:07:13;;;;;;;2.30;0.20;;;;;;;6.98;58.42;101198.16;7383066;19;20022;-64
2022/04/01 09:09:41;;;;;;;3.20;0.20;;;;;;;7.04;58.51;101192.47;7385077;19;20717;-64
2022/04/01 09:12:13;;;;;;;1.27;0.30;;;;;;;7.14;59.11;101200.41;7387636;19;20022;-64
2022/04/01 09:14:52;;;;;;;1.50;0.25;;;;;;;7.32;56.89;101191.09;7384867;19;20018;-65
2022/04/01 09:17:19;;;;;;;2.65;0.30;;;;;;;7.47;56.05;101207.34;7386461;19;20014;-65
2022/04/01 09:20:01;;;;;;;3.08;0.20;;;;;;;7.57;55.25;101211.72;7385915;19;20024;-65
2022/04/01 09:22:28;;;;;;;4.13;0.40;;;;;;;7.63;56.17;101211.22;7387935;19;20014;-64
2022/04/01 09:25:05;;;;;;;1.98;0.20;;;;;;;7.64;55.54;101205.03;7384489;19;20078;-64
2022/04/01 09:27:50;;;;;;;1.52;0.30;;;;;;;7.68;55.26;101219.53;7385406;19;20033;-65
2022/04/01 09:30:28;;;;;;;3.45;0.20;;;;;;;7.69;55.14;101215.97;7382808;19;20056;-63
2022/04/01 09:33:02;;;;;;;1.80;0.20;;;;;;;7.67;54.67;101199.53;7385272;19;20402;-64
2022/04/01 09:35:33;;;;;;;2.45;0.60;;;;;;;7.61;53.85;101214.94;7382749;19;20017;-65
2022/04/01 09:38:07;;;;;;;1.63;0.20;;;;;;;7.65;54.57;101218.97;7384026;19;20441;-65
2022/04/01 09:40:39;;;;;;;3.70;0.20;;;;;;;7.73;53.30;101211.31;7381918;19;20018;-65
2022/04/01 09:43:07;;;;;;;2.88;0.20;;;;;;;7.74;52.78;101212.97;7384431;19;20476;-65
2022/04/01 09:45:35;;;;;;;2.28;0.10;;;;;;;7.81;52.97;101223.78;7384815;19;20049;-65
2022/04/01 09:48:04;;;;;;;3.40;0.20;;;;;;;7.81;53.01;101211.53;7384364;19;20014;-65
2022/04/01 09:50:39;;;;;;;3.35;0.20;;;;;;;7.85;52.89;101220.78;7384375;19;20350;-66
2022/04/01 09:53:14;;;;;;;4.93;0.30;;;;;;;7.80;51.91;101214.25;7383868;19;20018;-65
2022/04/01 09:55:44;;;;;;;3.22;0.30;;;;;;;7.69;50.60;101215.13;7382847;19;20023;-65
2022/04/01 09:58:12;;;;;;;2.00;0.13;;;;;;;7.67;51.15;101225.72;7383917;19;20011;-64
2022/04/01 10:00:41;;;;;;;3.92;0.10;;;;;;;7.65;50.37;101209.31;7362152;19;20014;-64
2022/04/01 10:03:10;;;;;;;2.70;0.22;;;;;;;7.73;50.47;101217.38;7381901;19;20011;-64
2022/04/01 10:05:39;;;;;;;1.25;0.20;;;;;;;7.88;49.58;101207.44;7383826;19;20010;-63
2022/04/01 10:08:09;;;;;;;3.25;0.20;;;;;;;8.03;48.51;101219.28;7382893;19;20426;-64
2022/04/01 10:10:39;;;;;;;5.55;0.40;;;;;;;8.10;48.86;101211.75;7384024;19;20628;-65
2022/04/01 10:13:17;;;;;;;4.00;0.13;;;;;;;8.16;48.48;101209.44;7379841;19;20336;-65
2022/04/01 10:15:44;;;;;;;3.25;0.20;;;;;;;8.28;46.04;101215.44;7380327;19;20082;-66
2022/04/01 10:18:33;;;;;;;3.60;0.10;;;;;;;8.28;44.57;101225.91;7382088;19;20014;-65
2022/04/01 10:21:01;;;;;;;8.73;2.22;;;;;;;8.28;44.93;101225.91;7385018;19;20344;-64
2022/04/01 10:23:29;;;;;;;9.85;0.57;;;;;;;8.28;45.34;101219.88;7384758;19;20022;-65
2022/04/01 10:26:05;;;;;;;2.10;0.28;;;;;;;8.29;47.87;101226.75;7382436;19;20010;-64
2022/04/01 10:28:32;;;;;;;1.70;0.20;;;;;;;8.15;49.78;101210.41;7385228;19;20365;-65
2022/04/01 10:31:01;;;;;;;3.05;0.20;;;;;;;8.06;50.58;101221.66;7380290;19;20022;-64
2022/04/01 10:33:36;;;;;;;3.35;0.20;;;;;;;7.97;52.31;101229.44;7385692;19;20436;-64
2022/04/01 10:36:22;;;;;;;0.60;0.40;;;;;;;7.89;53.64;101229.22;7379863;19;20070;-64
2022/04/01 10:39:00;;;;;;;1.95;0.50;;;;;;;7.70;55.30;101230.72;7382948;19;20019;-65
2022/04/01 10:41:28;;;;;;;2.20;0.15;;;;;;;7.76;55.84;101246.91;7381665;19;20022;-65
2022/04/01 10:43:55;;;;;;;3.40;0.22;;;;;;;7.74;55.70;101237.38;7379820;19;20022;-65
2022/04/01 10:46:22;;;;;;;1.95;0.35;;;;;;;7.73;56.28;101230.47;7383386;19;20015;-65
2022/04/01 10:52:00;;;;;;;1.50;0.20;;;;;;;7.71;56.15;101227.16;7381258;19;20017;-64
2022/04/01 10:54:27;;;;;;;1.48;0.30;;;;;;;7.79;54.25;101229.16;7382045;19;20015;-64
2022/04/01 10:57:05;;;;;;;1.83;0.20;;;;;;;7.82;53.09;101226.28;7382655;19;20018;-64
2022/04/01 10:59:50;;;;;;;2.30;0.20;;;;;;;7.98;52.73;101212.75;7381951;19;20011;-64
2022/04/01 11:02:19;;;;;;;0.98;0.20;;;;;;;8.15;51.92;101218.25;7378875;19;20010;-63
2022/04/01 11:04:48;;;;;;;1.33;0.10;;;;;;;8.25;51.36;101233.22;7381923;19;20098;-65
2022/04/01 11:07:21;;;;;;;4.32;0.20;;;;;;;8.23;52.56;101222.06;7386458;19;20006;-63
2022/04/01 11:09:53;;;;;;;4.35;0.22;;;;;;;8.21;52.30;101232.66;7390755;19;20046;-64
2022/04/01 11:12:34;;;;;;;4.70;0.20;;;;;;;8.22;51.58;101236.09;7387101;19;20018;-64
2022/04/01 11:17:49;;;;;;;4.47;0.20;;;;;;;8.30;49.14;101234.53;7390536;19;20030;-65
2022/04/01 11:20:16;;;;;;;3.05;0.30;;;;;;;8.27;47.01;101241.81;7389711;19;20035;-66
2022/04/01 11:23:01;;;;;;;2.05;0.15;;;;;;;8.35;45.86;101211.38;7391309;19;20114;-65
2022/04/01 11:25:28;;;;;;;0.70;0.20;;;;;;;8.39;46.93;101227.69;7391820;19;20014;-64
2022/04/01 11:28:14;;;;;;;3.17;0.10;;;;;;;8.34;48.77;101235.94;7391074;19;20074;-64
2022/04/01 11:31:02;;;;;;;4.55;0.20;;;;;;;8.26;49.88;101217.38;7386844;19;20032;-63
2022/04/01 11:33:29;;;;;;;2.53;0.10;;;;;;;8.22;50.43;101241.34;7388875;19;20023;-65
2022/04/01 11:36:02;;;;;;;2.15;0.20;;;;;;;8.24;50.56;101221.91;7391731;19;20015;-65
2022/04/01 11:38:32;;;;;;;4.85;0.22;;;;;;;8.33;50.77;101215.91;7391031;19;20077;-65
2022/04/01 11:41:01;;;;;;;3.45;0.20;;;;;;;8.48;51.50;101224.31;7388733;19;20013;-66
2022/04/01 11:43:29;;;;;;;4.68;0.20;;;;;;;8.60;50.26;101228.50;7385521;19;20021;-64
2022/04/01 11:46:07;;;;;;;1.58;0.10;;;;;;;8.52;50.64;101226.53;7391670;19;20010;-65
2022/04/01 11:48:41;;;;;;;3.58;0.20;;;;;;;8.49;51.97;101237.28;7385593;19;20015;-63
2022/04/01 11:51:14;;;;;;;2.65;0.20;;;;;;;8.43;50.96;101235.16;7388090;19;20042;-66
2022/04/01 11:53:47;;;;;;;3.40;0.30;;;;;;;8.46;50.95;101229.66;7388811;19;20010;-65
2022/04/01 11:56:19;;;;;;;2.85;0.20;;;;;;;8.58;49.85;101238.31;7391332;19;20345;-63
2022/04/01 11:58:49;;;;;;;1.27;0.10;;;;;;;8.77;47.78;101238.41;7388553;19;20163;-65
2022/04/01 12:01:24;;;;;;;;;;;;;;;8.61;51.46;101252.94;7385649;19;20042;-64